createdAt,value
2023-03-02T00:01:15.925Z,57.87
2023-03-02T00:02:47.526Z,58.14
2023-03-02T00:04:26.482Z,57.88
2023-03-02T00:05:58.326Z,58.48
2023-03-02T00:07:32.236Z,58.20
2023-03-02T00:09:04.909Z,58.25
2023-03-02T00:10:36.681Z,58.41
2023-03-02T00:12:08.289Z,58.08
2023-03-02T00:13:39.908Z,58.12
2023-03-02T00:15:11.969Z,58.25
2023-03-02T00:16:43.521Z,58.48
2023-03-02T00:18:14.958Z,58.31
2023-03-02T00:19:47.505Z,58.03
2023-03-02T00:21:19.023Z,58.50
2023-03-02T00:22:50.578Z,57.82
2023-03-02T00:24:22.114Z,58.27
2023-03-02T00:25:53.658Z,57.81
2023-03-02T00:27:27.628Z,57.59
2023-03-02T00:28:59.108Z,58.39
2023-03-02T00:30:30.535Z,58.05
2023-03-02T00:32:04.075Z,58.09
2023-03-02T00:33:35.656Z,57.57
2023-03-02T00:35:07.427Z,57.97
2023-03-02T00:36:38.952Z,57.69
2023-03-02T00:38:10.590Z,58.09
2023-03-02T00:39:43.397Z,58.50
2023-03-02T00:41:15.623Z,58.27
2023-03-02T00:42:47.101Z,58.52
2023-03-02T00:44:18.771Z,58.67
2023-03-02T00:45:50.255Z,58.22
2023-03-02T00:47:21.748Z,58.83
2023-03-02T00:48:53.335Z,58.73
2023-03-02T00:50:24.951Z,58.02
2023-03-02T00:51:56.489Z,58.65
2023-03-02T00:53:28.010Z,58.08
2023-03-02T00:54:59.492Z,58.10
2023-03-02T00:56:31.744Z,58.16
2023-03-02T00:58:04.167Z,57.77
2023-03-02T00:59:36.951Z,58.20
2023-03-02T01:01:09.688Z,58.14
2023-03-02T01:02:44.621Z,57.81
2023-03-02T01:04:16.284Z,57.78
2023-03-02T01:05:48.151Z,57.85
2023-03-02T01:07:20.952Z,57.71
2023-03-02T01:08:52.422Z,57.46
2023-03-02T01:10:24.079Z,57.67
2023-03-02T01:11:55.680Z,57.76
2023-03-02T01:13:27.290Z,57.66
2023-03-02T01:14:58.837Z,57.98
2023-03-02T01:16:31.282Z,57.74
2023-03-02T01:18:03.472Z,57.73
2023-03-02T01:19:35.093Z,58.24
2023-03-02T01:21:07.696Z,58.12
2023-03-02T01:22:39.307Z,57.82
2023-03-02T01:24:10.828Z,57.85
2023-03-02T01:25:42.406Z,57.80
2023-03-02T01:27:14.081Z,57.85
2023-03-02T01:28:45.649Z,57.78
2023-03-02T01:30:17.426Z,58.18
2023-03-02T01:31:48.999Z,57.81
2023-03-02T01:33:21.558Z,57.55
2023-03-02T01:34:53.213Z,57.32
2023-03-02T01:36:25.150Z,57.35
2023-03-02T01:37:56.668Z,57.08
2023-03-02T01:39:28.787Z,57.40
2023-03-02T01:41:00.834Z,57.27
2023-03-02T01:42:38.770Z,56.79
2023-03-02T01:44:28.918Z,57.44
2023-03-02T01:46:20.865Z,57.83
2023-03-02T01:47:52.436Z,57.65
2023-03-02T01:49:23.991Z,57.67
2023-03-02T01:50:55.622Z,57.69
2023-03-02T01:52:27.452Z,58.35
2023-03-02T01:54:01.007Z,58.21
2023-03-02T01:55:32.863Z,57.94
2023-03-02T01:57:04.777Z,58.45
2023-03-02T01:58:36.731Z,58.04
2023-03-02T02:00:10.398Z,57.93
2023-03-02T02:01:42.818Z,58.27
2023-03-02T02:03:23.726Z,58.45
2023-03-02T02:04:55.672Z,58.60
2023-03-02T02:06:29.832Z,58.58
2023-03-02T02:08:01.419Z,58.17
2023-03-02T02:09:37.278Z,58.12
2023-03-02T02:11:08.902Z,58.77
2023-03-02T02:12:40.534Z,58.58
2023-03-02T02:14:12.092Z,58.85
2023-03-02T02:15:43.578Z,58.64
2023-03-02T02:17:15.153Z,58.63
2023-03-02T02:18:46.791Z,59.05
2023-03-02T02:20:29.397Z,58.57
2023-03-02T02:22:01.451Z,58.29
2023-03-02T02:23:43.403Z,58.88
2023-03-02T02:25:24.846Z,58.98
2023-03-02T02:26:56.511Z,58.40
2023-03-02T02:28:32.470Z,58.24
2023-03-02T02:30:04.533Z,58.45
2023-03-02T02:31:40.947Z,58.32
2023-03-02T02:33:14.309Z,58.89
2023-03-02T02:34:48.835Z,58.86
2023-03-02T02:36:21.995Z,58.26
2023-03-02T02:37:57.633Z,58.10
2023-03-02T02:39:30.391Z,58.74
2023-03-02T02:41:03.168Z,58.33
2023-03-02T02:42:35.802Z,59.06
2023-03-02T02:44:07.352Z,59.10
2023-03-02T02:45:38.929Z,58.72
2023-03-02T02:47:17.140Z,58.57
2023-03-02T02:48:48.726Z,59.05
2023-03-02T02:50:21.803Z,58.69
2023-03-02T02:51:53.300Z,58.60
2023-03-02T02:53:25.488Z,58.47
2023-03-02T02:54:57.797Z,59.08
2023-03-02T02:56:33.118Z,58.92
2023-03-02T02:58:10.086Z,58.48
2023-03-02T02:59:43.298Z,58.52
2023-03-02T03:01:15.879Z,58.25
2023-03-02T03:02:48.351Z,58.19
2023-03-02T03:04:24.801Z,58.46
2023-03-02T03:05:59.312Z,58.12
2023-03-02T03:07:31.258Z,58.57
2023-03-02T03:09:02.859Z,58.05
2023-03-02T03:10:35.215Z,58.25
2023-03-02T03:12:25.564Z,58.61
2023-03-02T03:13:59.886Z,58.98
2023-03-02T03:15:31.481Z,58.96
2023-03-02T03:17:03.369Z,59.01
2023-03-02T03:18:35.010Z,58.51
2023-03-02T03:20:09.571Z,58.26
2023-03-02T03:21:41.491Z,58.64
2023-03-02T03:23:12.986Z,58.12
2023-03-02T03:24:45.165Z,58.24
2023-03-02T03:26:17.318Z,58.68
2023-03-02T03:27:48.842Z,58.29
2023-03-02T03:29:24.307Z,59.18
2023-03-02T03:30:56.389Z,59.36
2023-03-02T03:32:28.092Z,58.98
2023-03-02T03:34:00.925Z,58.66
2023-03-02T03:35:32.491Z,59.30
2023-03-02T03:37:04.099Z,59.14
2023-03-02T03:38:35.583Z,59.23
2023-03-02T03:40:08.071Z,59.46
2023-03-02T03:41:40.079Z,58.97
2023-03-02T03:43:13.811Z,59.45
2023-03-02T03:44:45.445Z,59.72
2023-03-02T03:46:17.256Z,59.73
2023-03-02T03:47:48.786Z,59.54
2023-03-02T03:49:20.292Z,59.30
2023-03-02T03:50:51.801Z,59.16
2023-03-02T03:52:30.678Z,59.15
2023-03-02T03:54:02.957Z,58.64
2023-03-02T03:55:34.452Z,58.72
2023-03-02T03:57:06.806Z,59.68
2023-03-02T03:58:38.379Z,58.80
2023-03-02T04:00:10.946Z,59.15
2023-03-02T04:01:43.706Z,58.89
2023-03-02T04:03:15.887Z,59.63
2023-03-02T04:04:47.615Z,58.74
2023-03-02T04:06:19.166Z,58.94
2023-03-02T04:07:50.727Z,59.67
2023-03-02T04:09:22.452Z,59.67
2023-03-02T04:10:53.985Z,59.29
2023-03-02T04:12:25.490Z,59.64
2023-03-02T04:13:57.650Z,59.70
2023-03-02T04:15:29.678Z,59.31
2023-03-02T04:17:01.900Z,59.77
2023-03-02T04:18:33.705Z,59.29
2023-03-02T04:20:08.344Z,59.95
2023-03-02T04:21:40.351Z,59.83
2023-03-02T04:23:12.142Z,59.66
2023-03-02T04:24:43.734Z,59.22
2023-03-02T04:26:15.429Z,59.37
2023-03-02T04:27:47.411Z,59.24
2023-03-02T04:29:18.926Z,59.20
2023-03-02T04:30:51.723Z,59.35
2023-03-02T04:32:23.269Z,59.17
2023-03-02T04:33:54.873Z,59.37
2023-03-02T04:35:26.639Z,58.55
2023-03-02T04:36:58.238Z,58.76
2023-03-02T04:38:29.856Z,58.02
2023-03-02T04:40:01.400Z,58.83
2023-03-02T04:41:33.026Z,58.31
2023-03-02T04:43:04.521Z,58.79
2023-03-02T04:44:36.018Z,59.62
2023-03-02T04:46:07.834Z,59.78
2023-03-02T04:47:39.617Z,59.62
2023-03-02T04:49:11.108Z,59.49
2023-03-02T04:50:42.632Z,59.76
2023-03-02T04:52:14.194Z,59.43
2023-03-02T04:53:45.682Z,59.55
2023-03-02T04:55:18.375Z,59.53
2023-03-02T04:56:51.640Z,60.04
2023-03-02T04:58:23.814Z,60.08
2023-03-02T04:59:55.454Z,59.87
2023-03-02T05:01:27.199Z,60.12
2023-03-02T05:02:58.939Z,59.50
2023-03-02T05:04:30.517Z,59.64
2023-03-02T05:06:03.744Z,59.31
2023-03-02T05:07:35.228Z,59.53
2023-03-02T05:09:06.810Z,59.50
2023-03-02T05:10:38.348Z,59.38
2023-03-02T05:12:09.960Z,60.21
2023-03-02T05:13:41.523Z,59.95
2023-03-02T05:15:13.097Z,59.36
2023-03-02T05:16:44.650Z,59.61
2023-03-02T05:18:16.205Z,59.23
2023-03-02T05:19:47.662Z,59.02
2023-03-02T05:21:19.333Z,58.57
2023-03-02T05:22:50.844Z,58.48
2023-03-02T05:24:22.346Z,58.72
2023-03-02T05:25:54.517Z,58.94
2023-03-02T05:27:26.077Z,58.51
2023-03-02T05:28:57.613Z,58.75
2023-03-02T05:30:29.241Z,58.53
2023-03-02T05:32:00.882Z,59.06
2023-03-02T05:33:32.562Z,58.76
2023-03-02T05:35:04.306Z,59.06
2023-03-02T05:36:36.142Z,59.39
2023-03-02T05:38:07.875Z,58.58
2023-03-02T05:39:39.595Z,58.65
2023-03-02T05:41:11.299Z,59.07
2023-03-02T05:42:42.899Z,59.28
2023-03-02T05:44:14.420Z,59.33
2023-03-02T05:45:45.987Z,59.77
2023-03-02T05:47:18.554Z,59.04
2023-03-02T05:48:50.111Z,59.53
2023-03-02T05:50:25.226Z,59.37
2023-03-02T05:51:59.790Z,59.70
2023-03-02T05:53:34.033Z,59.40
2023-03-02T05:55:05.789Z,59.26
2023-03-02T05:56:37.497Z,59.31
2023-03-02T05:58:18.025Z,59.57
2023-03-02T06:01:41.368Z,59.56
2023-03-02T06:03:13.156Z,58.97
2023-03-02T06:04:53.818Z,59.17
2023-03-02T06:06:33.866Z,59.30
2023-03-02T06:08:14.677Z,59.46
2023-03-02T06:09:46.287Z,58.78
2023-03-02T06:13:15.879Z,59.35
2023-03-02T06:14:47.449Z,59.31
2023-03-02T06:16:19.279Z,60.04
2023-03-02T06:30:34.494Z,60.36
2023-03-02T06:34:29.751Z,60.20
2023-03-02T06:36:15.421Z,60.62
2023-03-02T06:44:31.099Z,59.73
2023-03-02T06:47:43.079Z,60.51
2023-03-02T06:49:48.668Z,60.04
2023-03-02T06:52:10.892Z,59.94
2023-03-02T06:55:56.845Z,59.58
2023-03-02T06:57:48.105Z,59.48
2023-03-02T07:08:53.996Z,59.77
2023-03-02T07:10:37.388Z,60.19
2023-03-02T07:15:53.928Z,60.76
2023-03-02T07:22:34.042Z,60.52
2023-03-02T07:32:35.567Z,60.23
2023-03-02T07:37:00.153Z,60.19
2023-03-02T07:38:31.772Z,60.31
2023-03-02T07:40:12.357Z,60.19
2023-03-02T07:41:59.260Z,60.55
2023-03-02T07:45:32.410Z,60.27
2023-03-02T07:53:37.231Z,60.19
2023-03-02T08:25:01.036Z,61.23
2023-03-02T08:28:27.280Z,61.12
2023-03-02T08:29:58.949Z,61.47
2023-03-02T08:36:37.444Z,61.06
2023-03-02T08:38:24.589Z,61.02
2023-03-02T08:42:22.514Z,60.65
2023-03-02T08:44:45.187Z,60.38
2023-03-02T08:46:29.314Z,60.45
2023-03-02T08:48:00.950Z,60.37
2023-03-02T09:00:46.250Z,60.38
2023-03-02T09:05:12.528Z,60.76
2023-03-02T09:06:44.756Z,60.63
2023-03-02T09:26:36.262Z,59.62
2023-03-02T09:28:10.878Z,59.70
2023-03-02T09:29:57.933Z,59.30
2023-03-02T09:37:09.683Z,60.81
2023-03-02T09:38:03.202Z,61.33
2023-03-02T09:39:37.638Z,61.03
2023-03-02T09:41:15.884Z,61.86
2023-03-02T09:43:07.071Z,61.12
2023-03-02T09:44:46.360Z,61.50
2023-03-02T09:47:10.540Z,61.45
2023-03-02T09:48:35.682Z,61.34
2023-03-02T09:50:26.304Z,60.98
2023-03-02T09:52:27.010Z,61.52
2023-03-02T09:55:47.756Z,61.56
2023-03-02T09:57:23.160Z,61.42
2023-03-02T09:59:05.504Z,61.53
2023-03-02T10:00:40.567Z,61.13
2023-03-02T10:04:41.495Z,60.89
2023-03-02T10:06:13.274Z,60.90
2023-03-02T10:07:50.394Z,61.32
2023-03-02T10:09:27.459Z,61.35
2023-03-02T10:10:59.736Z,60.93
2023-03-02T10:12:37.609Z,61.21
2023-03-02T10:16:47.208Z,60.65
2023-03-02T10:18:12.339Z,60.89
2023-03-02T10:19:47.045Z,61.04
2023-03-02T10:21:22.527Z,60.64
2023-03-02T10:22:55.376Z,60.48
2023-03-02T10:24:30.548Z,60.78
2023-03-02T10:26:36.111Z,60.10
2023-03-02T10:28:12.475Z,60.25
2023-03-02T10:29:51.528Z,60.61
2023-03-02T10:31:32.191Z,60.73
2023-03-02T10:35:16.796Z,60.38
2023-03-02T10:36:48.521Z,60.29
2023-03-02T10:38:28.626Z,60.18
2023-03-02T10:40:20.741Z,60.04
2023-03-02T10:42:26.043Z,60.05
2023-03-02T10:46:02.141Z,59.96
2023-03-02T10:47:37.233Z,59.67
2023-03-02T10:49:27.688Z,59.67
2023-03-02T10:51:00.615Z,59.93
2023-03-02T10:54:20.733Z,59.50
2023-03-02T10:55:55.015Z,59.81
2023-03-02T10:57:58.830Z,60.37
2023-03-02T10:59:43.660Z,60.28
2023-03-02T11:01:35.700Z,60.32
2023-03-02T11:03:25.570Z,60.15
2023-03-02T11:05:17.219Z,59.33
2023-03-02T11:06:49.246Z,59.12
2023-03-02T11:08:24.514Z,59.78
2023-03-02T11:10:28.079Z,59.55
2023-03-02T11:12:26.040Z,59.66
2023-03-02T11:14:14.089Z,59.53
2023-03-02T11:15:49.018Z,59.62
2023-03-02T11:17:31.071Z,59.30
2023-03-02T11:19:21.706Z,59.00
2023-03-02T11:21:49.021Z,59.72
2023-03-02T11:23:55.076Z,59.01
2023-03-02T11:25:28.670Z,59.16
2023-03-02T11:29:24.235Z,59.61
2023-03-02T11:31:02.978Z,58.73
2023-03-02T11:32:37.475Z,58.91
2023-03-02T11:34:38.222Z,59.18
2023-03-02T11:38:18.056Z,59.30
2023-03-02T11:40:10.464Z,58.63
2023-03-02T11:41:49.372Z,58.50
2023-03-02T11:43:22.176Z,58.61
2023-03-02T11:45:06.815Z,58.65
2023-03-02T11:46:58.737Z,58.57
2023-03-02T11:50:46.209Z,58.61
2023-03-02T11:52:19.170Z,58.25
2023-03-02T11:54:29.027Z,58.47
2023-03-02T11:56:23.914Z,57.65
2023-03-02T11:57:55.904Z,58.60
2023-03-02T11:59:32.809Z,57.80
2023-03-02T12:01:13.244Z,57.80
2023-03-02T12:03:00.978Z,57.50
2023-03-02T12:04:34.037Z,57.57
2023-03-02T12:06:14.849Z,57.42
2023-03-02T12:07:46.958Z,58.33
2023-03-02T12:09:24.525Z,57.88
2023-03-02T12:11:06.751Z,58.24
2023-03-02T12:12:42.173Z,58.38
2023-03-02T12:14:26.145Z,58.21
2023-03-02T12:15:57.960Z,57.48
2023-03-02T12:17:31.317Z,57.37
2023-03-02T12:19:35.513Z,57.40
2023-03-02T12:21:10.545Z,57.33
2023-03-02T12:22:56.443Z,58.15
2023-03-02T12:24:38.335Z,57.73
2023-03-02T12:26:37.892Z,57.91
2023-03-02T12:28:25.108Z,57.49
2023-03-02T12:29:59.249Z,57.68
2023-03-02T12:31:40.964Z,58.06
2023-03-02T12:33:19.840Z,57.85
2023-03-02T12:34:52.052Z,57.80
2023-03-02T12:36:27.123Z,57.75
2023-03-02T12:38:15.539Z,57.16
2023-03-02T12:40:05.696Z,57.18
2023-03-02T12:41:53.419Z,57.67
2023-03-02T12:43:25.047Z,57.26
2023-03-02T12:45:04.121Z,57.89
2023-03-02T12:46:36.987Z,57.81
2023-03-02T12:48:20.838Z,57.83
2023-03-02T12:50:05.934Z,57.22
2023-03-02T12:51:43.905Z,57.91
2023-03-02T12:53:16.923Z,56.98
2023-03-02T12:54:58.385Z,56.76
2023-03-02T12:56:29.910Z,57.47
2023-03-02T12:58:01.740Z,57.22
2023-03-02T12:59:33.357Z,57.00
2023-03-02T13:01:06.104Z,57.09
2023-03-02T13:02:38.265Z,57.05
2023-03-02T13:04:19.591Z,56.32
2023-03-02T13:05:51.200Z,57.04
2023-03-02T13:07:30.394Z,56.59
2023-03-02T13:09:04.331Z,56.97
2023-03-02T13:10:36.654Z,56.70
2023-03-02T13:12:14.562Z,56.94
2023-03-02T13:13:46.472Z,56.92
2023-03-02T13:15:21.951Z,56.71
2023-03-02T13:16:54.837Z,56.47
2023-03-02T13:18:28.437Z,56.39
2023-03-02T13:20:10.318Z,56.68
2023-03-02T13:21:53.560Z,56.82
2023-03-02T13:23:25.118Z,56.22
2023-03-02T13:25:03.971Z,56.07
2023-03-02T13:26:36.009Z,56.75
2023-03-02T13:28:22.452Z,56.39
2023-03-02T13:29:55.747Z,56.43
2023-03-02T13:31:27.567Z,56.65
2023-03-02T13:33:03.846Z,56.54
2023-03-02T13:34:35.525Z,56.48
2023-03-02T13:36:07.869Z,56.65
2023-03-02T13:37:44.297Z,56.42
2023-03-02T13:39:45.786Z,56.50
2023-03-02T13:41:30.571Z,56.44
2023-03-02T13:43:02.267Z,56.91
2023-03-02T13:44:34.425Z,56.84
2023-03-02T13:46:12.281Z,56.60
2023-03-02T13:47:52.062Z,56.21
2023-03-02T13:49:27.194Z,56.82
2023-03-02T13:50:59.854Z,55.91
2023-03-02T13:52:31.385Z,56.51
2023-03-02T13:54:03.479Z,56.11
2023-03-02T13:55:35.193Z,55.84
2023-03-02T13:57:07.223Z,55.88
2023-03-02T13:58:39.229Z,56.16
2023-03-02T14:00:14.780Z,56.54
2023-03-02T14:01:46.424Z,55.81
2023-03-02T14:03:21.252Z,56.34
2023-03-02T14:04:53.044Z,56.15
2023-03-02T14:06:24.755Z,56.48
2023-03-02T14:07:56.315Z,56.22
2023-03-02T14:09:27.891Z,55.99
2023-03-02T14:10:59.759Z,56.17
2023-03-02T14:12:31.406Z,56.60
2023-03-02T14:14:03.581Z,56.35
2023-03-02T14:15:36.923Z,56.05
2023-03-02T14:17:12.396Z,56.03
2023-03-02T14:18:47.371Z,55.94
2023-03-02T14:20:19.701Z,55.75
2023-03-02T14:21:51.373Z,56.44
2023-03-02T14:23:24.000Z,56.46
2023-03-02T14:24:56.035Z,56.44
2023-03-02T14:26:59.975Z,56.28
2023-03-02T14:28:32.892Z,55.91
2023-03-02T14:30:14.846Z,56.09
2023-03-02T14:31:46.407Z,56.48
2023-03-02T14:33:18.113Z,56.39
2023-03-02T14:34:49.742Z,56.52
2023-03-02T14:36:23.635Z,56.33
2023-03-02T14:37:55.407Z,56.06
2023-03-02T14:39:33.686Z,56.30
2023-03-02T14:41:05.810Z,56.19
2023-03-02T14:42:38.669Z,56.14
2023-03-02T14:44:11.214Z,56.30
2023-03-02T14:45:43.023Z,56.30
2023-03-02T14:47:16.764Z,56.47
2023-03-02T14:48:48.626Z,56.29
2023-03-02T14:50:20.473Z,56.30
2023-03-02T14:51:59.608Z,56.43
2023-03-02T14:53:32.961Z,56.64
2023-03-02T14:55:25.837Z,56.54
2023-03-02T14:56:57.751Z,56.57
2023-03-02T14:58:33.138Z,56.65
2023-03-02T15:00:05.937Z,56.76
2023-03-02T15:01:39.589Z,56.69
2023-03-02T15:03:13.641Z,56.75
2023-03-02T15:04:45.690Z,56.58
2023-03-02T15:06:20.549Z,56.35
2023-03-02T15:07:54.186Z,56.79
2023-03-02T15:09:26.336Z,56.53
2023-03-02T15:10:58.858Z,56.61
2023-03-02T15:12:31.228Z,56.69
2023-03-02T15:14:03.318Z,56.46
2023-03-02T15:15:35.344Z,56.56
2023-03-02T15:17:08.568Z,56.21
2023-03-02T15:18:40.417Z,56.65
2023-03-02T15:20:14.205Z,56.40
2023-03-02T15:21:46.651Z,56.35
2023-03-02T15:23:18.286Z,56.58
2023-03-02T15:24:50.152Z,56.48
2023-03-02T15:26:21.716Z,56.17
2023-03-02T15:27:53.502Z,56.35
2023-03-02T15:29:25.131Z,56.65
2023-03-02T15:30:57.472Z,56.48
2023-03-02T15:32:29.535Z,56.35
2023-03-02T15:34:01.849Z,56.49
2023-03-02T15:35:34.658Z,56.47
2023-03-02T15:37:06.719Z,56.65
2023-03-02T15:38:38.501Z,56.26
2023-03-02T15:40:11.111Z,56.30
2023-03-02T15:41:42.701Z,56.21
2023-03-02T15:43:14.661Z,56.35
2023-03-02T15:44:46.361Z,56.57
2023-03-02T15:46:18.548Z,56.41
2023-03-02T15:47:50.433Z,56.51
2023-03-02T15:49:25.236Z,56.05
2023-03-02T15:51:02.930Z,56.32
2023-03-02T15:52:34.604Z,55.68
2023-03-02T15:54:07.008Z,55.89
2023-03-02T15:55:40.442Z,55.93
2023-03-02T15:57:13.018Z,56.09
2023-03-02T15:58:47.896Z,56.12
2023-03-02T16:00:20.372Z,55.86
2023-03-02T16:01:53.304Z,56.37
2023-03-02T16:03:25.093Z,56.02
2023-03-02T16:04:56.947Z,55.95
2023-03-02T16:06:29.338Z,55.91
2023-03-02T16:08:00.954Z,56.39
2023-03-02T16:09:32.729Z,56.32
2023-03-02T16:11:05.667Z,56.03
2023-03-02T16:12:37.621Z,56.45
2023-03-02T16:14:15.916Z,56.23
2023-03-02T16:15:52.411Z,56.21
2023-03-02T16:17:24.380Z,56.07
2023-03-02T16:18:57.451Z,56.23
2023-03-02T16:20:29.369Z,55.94
2023-03-02T16:22:01.206Z,55.79
2023-03-02T16:23:33.030Z,56.13
2023-03-02T16:25:04.893Z,55.74
2023-03-02T16:26:37.589Z,55.84
2023-03-02T16:28:10.255Z,55.77
2023-03-02T16:29:43.702Z,55.74
2023-03-02T16:31:17.035Z,55.83
2023-03-02T16:32:49.245Z,55.92
2023-03-02T16:34:20.943Z,55.79
2023-03-02T16:35:52.708Z,55.95
2023-03-02T16:37:24.663Z,55.90
2023-03-02T16:38:56.516Z,56.04
2023-03-02T16:40:31.034Z,56.08
2023-03-02T16:42:02.740Z,56.26
2023-03-02T16:43:34.381Z,55.95
2023-03-02T16:45:06.505Z,56.36
2023-03-02T16:46:39.504Z,55.99
2023-03-02T16:48:11.421Z,55.71
2023-03-02T16:49:43.139Z,55.70
2023-03-02T16:51:15.776Z,55.64
2023-03-02T16:52:48.376Z,55.47
2023-03-02T16:54:21.334Z,56.02
2023-03-02T16:55:53.837Z,55.67
2023-03-02T16:57:29.988Z,56.47
2023-03-02T16:59:02.038Z,56.06
2023-03-02T17:00:34.472Z,55.98
2023-03-02T17:02:06.400Z,56.43
2023-03-02T17:03:38.142Z,56.31
2023-03-02T17:05:10.276Z,56.71
2023-03-02T17:06:59.534Z,56.47
2023-03-02T17:08:33.238Z,56.35
2023-03-02T17:10:05.802Z,56.73
2023-03-02T17:11:37.796Z,56.51
2023-03-02T17:13:12.960Z,57.03
2023-03-02T17:14:45.072Z,57.00
2023-03-02T17:16:17.015Z,56.81
2023-03-02T17:17:49.060Z,56.80
2023-03-02T17:19:21.121Z,57.22
2023-03-02T17:20:54.293Z,56.65
2023-03-02T17:22:26.397Z,56.33
2023-03-02T17:23:58.244Z,57.02
2023-03-02T17:25:30.331Z,57.04
2023-03-02T17:27:02.399Z,56.61
2023-03-02T17:28:34.223Z,57.08
2023-03-02T17:30:06.512Z,56.91
2023-03-02T17:31:38.761Z,56.69
2023-03-02T17:33:10.983Z,56.73
2023-03-02T17:34:43.647Z,56.64
2023-03-02T17:36:15.949Z,57.16
2023-03-02T17:37:47.621Z,57.22
2023-03-02T17:39:19.684Z,57.13
2023-03-02T17:40:51.860Z,57.04
2023-03-02T17:42:23.920Z,57.19
2023-03-02T17:43:55.492Z,56.92
2023-03-02T17:45:27.422Z,57.10
2023-03-02T17:46:59.323Z,56.71
2023-03-02T17:48:30.885Z,56.22
2023-03-02T17:50:03.483Z,56.33
2023-03-02T17:51:35.415Z,56.81
2023-03-02T17:53:07.186Z,56.20
2023-03-02T17:54:38.934Z,56.03
2023-03-02T17:56:11.146Z,56.27
2023-03-02T17:57:43.423Z,56.47
2023-03-02T17:59:15.429Z,56.08
2023-03-02T18:00:47.519Z,56.59
2023-03-02T18:02:19.432Z,56.70
2023-03-02T18:03:51.365Z,56.01
2023-03-02T18:05:23.301Z,55.91
2023-03-02T18:06:54.967Z,56.20
2023-03-02T18:08:27.148Z,56.24
2023-03-02T18:09:58.882Z,55.59
2023-03-02T18:11:32.006Z,55.97
2023-03-02T18:13:03.817Z,56.02
2023-03-02T18:14:35.812Z,55.53
2023-03-02T18:16:07.557Z,55.83
2023-03-02T18:17:39.385Z,55.69
2023-03-02T18:19:11.337Z,55.56
2023-03-02T18:20:42.991Z,55.62
2023-03-02T18:22:15.084Z,55.79
2023-03-02T18:23:47.918Z,55.81
2023-03-02T18:25:20.418Z,56.19
2023-03-02T18:26:52.035Z,55.45
2023-03-02T18:28:23.578Z,55.81
2023-03-02T18:29:55.635Z,55.78
2023-03-02T18:31:28.525Z,55.91
2023-03-02T18:33:00.906Z,55.95
2023-03-02T18:34:33.372Z,56.38
2023-03-02T18:36:05.642Z,56.25
2023-03-02T18:37:37.316Z,55.89
2023-03-02T18:39:09.036Z,56.34
2023-03-02T18:40:40.654Z,55.97
2023-03-02T18:42:12.882Z,55.76
2023-03-02T18:43:45.016Z,56.35
2023-03-02T18:45:27.179Z,55.65
2023-03-02T18:46:59.159Z,55.86
2023-03-02T18:48:32.214Z,55.56
2023-03-02T18:50:04.548Z,55.47
2023-03-02T18:51:36.858Z,55.62
2023-03-02T18:53:11.218Z,55.12
2023-03-02T18:54:44.857Z,55.63
2023-03-02T18:56:16.696Z,55.24
2023-03-02T18:57:48.760Z,55.38
2023-03-02T18:59:20.457Z,55.33
2023-03-02T19:00:52.882Z,55.14
2023-03-02T19:02:24.684Z,55.67
2023-03-02T19:03:57.800Z,55.52
2023-03-02T19:05:29.862Z,56.15
2023-03-02T19:07:03.192Z,55.47
2023-03-02T19:08:35.736Z,55.44
2023-03-02T19:10:07.626Z,56.17
2023-03-02T19:11:39.609Z,55.41
2023-03-02T19:13:12.090Z,55.72
2023-03-02T19:14:44.043Z,55.60
2023-03-02T19:16:18.117Z,55.95
2023-03-02T19:17:52.161Z,56.55
2023-03-02T19:19:24.022Z,55.77
2023-03-02T19:20:57.856Z,55.81
2023-03-02T19:22:29.578Z,56.20
2023-03-02T19:24:02.232Z,56.51
2023-03-02T19:25:34.354Z,55.75
2023-03-02T19:27:05.935Z,56.59
2023-03-02T19:28:38.523Z,56.12
2023-03-02T19:30:11.762Z,56.61
2023-03-02T19:31:43.673Z,56.70
2023-03-02T19:33:15.570Z,56.08
2023-03-02T19:34:47.576Z,56.67
2023-03-02T19:36:19.767Z,56.17
2023-03-02T19:37:51.334Z,56.25
2023-03-02T19:39:22.891Z,56.21
2023-03-02T19:40:55.716Z,56.69
2023-03-02T19:42:27.288Z,56.12
2023-03-02T19:43:59.411Z,56.75
2023-03-02T19:45:32.562Z,56.33
2023-03-02T19:47:04.902Z,55.88
2023-03-02T19:48:36.828Z,56.75
2023-03-02T19:50:09.500Z,56.77
2023-03-02T19:51:41.208Z,56.87
2023-03-02T19:53:13.049Z,56.91
2023-03-02T19:54:44.816Z,56.89
2023-03-02T19:56:16.734Z,56.41
2023-03-02T19:57:51.656Z,56.68
2023-03-02T19:59:24.027Z,56.73
2023-03-02T20:00:55.830Z,56.59
2023-03-02T20:02:27.588Z,56.51
2023-03-02T20:04:00.297Z,57.17
2023-03-02T20:05:32.007Z,57.13
2023-03-02T20:07:03.868Z,56.53
2023-03-02T20:08:35.594Z,56.20
2023-03-02T20:10:10.146Z,56.68
2023-03-02T20:11:42.359Z,56.47
2023-03-02T20:13:14.099Z,56.50
2023-03-02T20:14:49.391Z,56.44
2023-03-02T20:16:23.064Z,56.16
2023-03-02T20:17:55.254Z,56.21
2023-03-02T20:19:27.228Z,56.32
2023-03-02T20:20:58.853Z,56.28
2023-03-02T20:22:30.666Z,56.57
2023-03-02T20:24:02.990Z,56.51
2023-03-02T20:25:34.925Z,56.60
2023-03-02T20:27:07.028Z,56.61
2023-03-02T20:28:38.696Z,56.92
2023-03-02T20:30:11.476Z,57.34
2023-03-02T20:31:43.417Z,56.51
2023-03-02T20:33:15.601Z,56.47
2023-03-02T20:34:47.689Z,56.54
2023-03-02T20:36:21.522Z,57.18
2023-03-02T20:37:53.752Z,56.63
2023-03-02T20:39:26.586Z,57.14
2023-03-02T20:40:58.870Z,56.72
2023-03-02T20:42:34.227Z,57.31
2023-03-02T20:44:06.009Z,57.55
2023-03-02T20:45:38.135Z,57.04
2023-03-02T20:47:10.231Z,57.24
2023-03-02T20:48:42.503Z,57.55
2023-03-02T20:50:15.292Z,57.56
2023-03-02T20:51:51.386Z,57.58
2023-03-02T20:53:23.341Z,57.40
2023-03-02T20:54:54.998Z,57.63
2023-03-02T20:56:27.424Z,57.71
2023-03-02T20:58:00.280Z,57.17
2023-03-02T20:59:31.954Z,57.71
2023-03-02T21:01:03.706Z,57.24
2023-03-02T21:02:35.663Z,57.41
2023-03-02T21:04:07.481Z,56.92
2023-03-02T21:05:40.985Z,57.48
2023-03-02T21:07:12.727Z,57.25
2023-03-02T21:08:44.808Z,57.42
2023-03-02T21:10:18.264Z,57.31
2023-03-02T21:11:50.066Z,57.44
2023-03-02T21:13:22.711Z,57.18
2023-03-02T21:14:54.692Z,57.36
2023-03-02T21:16:28.072Z,57.15
2023-03-02T21:17:59.829Z,56.75
2023-03-02T21:19:33.942Z,57.11
2023-03-02T21:21:05.913Z,57.18
2023-03-02T21:22:38.184Z,56.77
2023-03-02T21:24:10.523Z,57.03
2023-03-02T21:25:43.975Z,56.65
2023-03-02T21:27:15.834Z,57.61
2023-03-02T21:28:47.478Z,57.54
2023-03-02T21:30:23.288Z,57.44
2023-03-02T21:31:55.356Z,56.78
2023-03-02T21:33:28.073Z,56.62
2023-03-02T21:35:01.769Z,57.29
2023-03-02T21:36:33.818Z,56.97
2023-03-02T21:38:05.583Z,57.06
2023-03-02T21:39:37.372Z,56.82
2023-03-02T21:41:09.250Z,56.87
2023-03-02T21:42:40.972Z,56.86
2023-03-02T21:44:12.965Z,57.59
2023-03-02T21:45:44.613Z,57.03
2023-03-02T21:47:16.455Z,56.71
2023-03-02T21:48:49.024Z,56.93
2023-03-02T21:50:22.610Z,57.09
2023-03-02T21:51:54.565Z,57.30
2023-03-02T21:53:26.974Z,57.47
2023-03-02T21:54:59.346Z,57.27
2023-03-02T21:56:31.481Z,57.26
2023-03-02T21:58:03.467Z,56.99
2023-03-02T21:59:37.625Z,56.96
2023-03-02T22:01:09.252Z,57.20
2023-03-02T22:02:40.971Z,57.76
2023-03-02T22:04:12.985Z,57.68
2023-03-02T22:05:46.429Z,56.80
2023-03-02T22:07:18.415Z,57.57
2023-03-02T22:08:50.263Z,57.31
2023-03-02T22:10:37.482Z,57.73
2023-03-02T22:12:13.221Z,57.65
2023-03-02T22:13:45.451Z,57.54
2023-03-02T22:15:17.201Z,57.42
2023-03-02T22:16:49.523Z,56.88
2023-03-02T22:18:21.418Z,57.62
2023-03-02T22:19:53.644Z,56.74
2023-03-02T22:21:30.798Z,57.62
2023-03-02T22:23:02.432Z,57.01
2023-03-02T22:24:34.112Z,56.81
2023-03-02T22:26:09.443Z,56.79
2023-03-02T22:27:41.144Z,57.19
2023-03-02T22:29:14.637Z,57.25
2023-03-02T22:30:46.532Z,57.26
2023-03-02T22:32:19.282Z,57.40
2023-03-02T22:33:51.668Z,57.25
2023-03-02T22:35:24.770Z,56.59
2023-03-02T22:36:57.711Z,56.99
2023-03-02T22:38:29.718Z,57.29
2023-03-02T22:40:02.351Z,57.38
2023-03-02T22:41:34.416Z,57.44
2023-03-02T22:43:33.346Z,56.65
2023-03-02T22:45:15.510Z,56.58
2023-03-02T22:46:47.222Z,56.77
2023-03-02T22:48:20.677Z,57.08
2023-03-02T22:50:03.885Z,56.84
2023-03-02T22:51:35.633Z,56.53
2023-03-02T22:53:09.597Z,56.52
2023-03-02T22:54:41.164Z,57.01
2023-03-02T22:56:35.997Z,57.27
2023-03-02T22:58:26.667Z,57.16
2023-03-02T23:00:16.995Z,56.51
2023-03-02T23:01:48.640Z,57.21
2023-03-02T23:03:23.826Z,56.87